If you wish to contribute or participate in the discussions about articles you are invited to join SKYbrary as a registered user

 Actions

Argyle Airport

From SKYbrary Wiki

YARG
Airport
ICAO: YARG – IATA: GYL
Summary
Name Argyle Airport
Region Asia and Pacific
Territory Australia AU.gif
Location Argyle, Western Australia
Serving Argyle
Elevation 159.106 m
522 ft
522 ft159.106 m
Type small airport
Coordinates 16° 38' 12.84" S, 128° 27' 3.60" E
Runways
Designator Length Width Surface ROPS
1/19 2300 m7,545.932 ft
30 m98.425 ft
ASP /


METAR
Observation YARG 201400Z AUTO 31004KT 9999 // NCD 29/16 Q1011
Station Argyle Airport
Date/Time 20 April 2019 14:00:00
Wind direction 310°
Wind speed 04 kts
Lowest cloud amount no clouds detected
Temperature 29°C
Dew point 16°C
Humidity 45%
QNH 1011 hPa
Weather condition n/a